Time;durP1;ratioP1;P1;durP2;ratioP2;P2;SDS_P1;SDS_P2;PMS_P1;PMS_P2;Temp;Humidity;BMP_temperature;BMP_pressure;BME280_temperature;BME280_humidity;BME280_pressure;Samples;Min_cycle;Max_cycle;Signal;HPM_P1;HPM_P2
2022/03/25 00:01:38;;;;;;;51.05;27.15;;;;;;;8.39;72.00;103093.81;5015240;28;20108;-70
2022/03/25 00:04:03;;;;;;;46.47;25.92;;;;;;;8.40;72.53;103098.25;5020231;28;20041;-70
2022/03/25 00:06:29;;;;;;;44.25;26.65;;;;;;;8.38;72.72;103099.88;5012728;28;20041;-70
2022/03/25 00:08:54;;;;;;;54.65;26.00;;;;;;;8.34;73.04;103102.19;5017688;28;20029;-70
2022/03/25 00:11:20;;;;;;;54.33;27.17;;;;;;;8.21;73.41;103100.53;5032008;28;20492;-71
2022/03/25 00:13:45;;;;;;;49.92;26.98;;;;;;;8.30;72.97;103093.22;5022160;28;20033;-70
2022/03/25 00:16:11;;;;;;;49.88;27.40;;;;;;;8.28;73.47;103105.34;5012301;28;20045;-71
2022/03/25 00:18:36;;;;;;;52.97;27.63;;;;;;;8.38;73.81;103101.59;5011816;28;20032;-71
2022/03/25 00:21:01;;;;;;;47.58;26.77;;;;;;;8.22;74.17;103104.94;5022665;28;20053;-70
2022/03/25 00:23:27;;;;;;;47.85;27.35;;;;;;;8.22;74.65;103107.56;5016637;28;20052;-71
2022/03/25 00:25:53;;;;;;;50.50;27.60;;;;;;;8.10;74.74;103106.00;4994518;28;20172;-70
2022/03/25 00:28:20;;;;;;;53.65;28.15;;;;;;;8.19;74.67;103117.88;5011476;28;20331;-71
2022/03/25 00:30:46;;;;;;;57.08;29.63;;;;;;;8.24;75.71;103106.88;5011705;28;20354;-70
2022/03/25 00:33:12;;;;;;;48.00;28.17;;;;;;;8.14;74.26;103107.13;5014321;28;20084;-71
2022/03/25 00:35:37;;;;;;;56.92;29.13;;;;;;;8.08;74.82;103109.34;5014975;28;20033;-69
2022/03/25 00:38:02;;;;;;;54.63;29.33;;;;;;;8.17;75.00;103109.03;5012101;28;20113;-69
2022/03/25 00:40:28;;;;;;;56.72;30.65;;;;;;;8.10;74.42;103103.38;4998566;28;20038;-69
2022/03/25 00:42:53;;;;;;;56.10;30.05;;;;;;;8.03;75.00;103101.19;5018780;28;20029;-70
2022/03/25 00:45:18;;;;;;;57.92;30.75;;;;;;;8.04;76.18;103108.22;5018907;28;20065;-70
2022/03/25 00:47:44;;;;;;;58.83;31.23;;;;;;;8.02;75.78;103109.88;5016876;28;20436;-70
2022/03/25 00:50:11;;;;;;;57.75;31.10;;;;;;;7.96;76.83;103098.06;4997794;28;20037;-70
2022/03/25 00:52:37;;;;;;;61.63;31.27;;;;;;;7.95;76.60;103105.03;5015815;28;20458;-69
2022/03/25 00:55:04;;;;;;;55.00;31.80;;;;;;;8.03;76.72;103106.44;5018462;28;20029;-70
2022/03/25 00:57:29;;;;;;;58.03;33.42;;;;;;;7.97;77.77;103108.66;5015502;28;20466;-69
2022/03/25 00:59:54;;;;;;;63.13;30.70;;;;;;;7.92;77.58;103110.06;5016288;28;20065;-69
2022/03/25 01:02:20;;;;;;;57.58;31.75;;;;;;;7.83;77.80;103109.50;4998171;28;20061;-69
2022/03/25 01:04:46;;;;;;;59.15;33.45;;;;;;;7.97;80.15;103105.13;5015543;28;20026;-69
2022/03/25 01:07:11;;;;;;;63.85;33.63;;;;;;;7.95;80.30;103115.53;4997677;28;20030;-69
2022/03/25 01:09:36;;;;;;;65.22;34.38;;;;;;;7.88;77.98;103111.59;5015384;28;20018;-70
2022/03/25 01:12:02;;;;;;;68.18;34.47;;;;;;;7.82;78.76;103112.94;5014731;28;20025;-69
2022/03/25 01:14:27;;;;;;;65.68;35.83;;;;;;;7.73;79.03;103111.53;5020528;28;20381;-69
2022/03/25 01:16:53;;;;;;;63.50;34.70;;;;;;;7.59;79.11;103113.22;5015291;28;20042;-69
2022/03/25 01:19:20;;;;;;;66.20;34.78;;;;;;;7.57;79.59;103120.09;5015571;28;20137;-70
2022/03/25 01:21:46;;;;;;;65.53;33.80;;;;;;;7.59;80.42;103118.47;4997610;28;20034;-70
2022/03/25 01:24:11;;;;;;;62.65;35.17;;;;;;;7.50;80.29;103119.59;5018303;28;20513;-69
2022/03/25 01:26:37;;;;;;;66.28;35.05;;;;;;;7.49;81.09;103109.91;5015078;28;20101;-70
2022/03/25 01:29:04;;;;;;;62.25;34.22;;;;;;;7.52;82.27;103115.38;5016691;28;20026;-69
2022/03/25 01:31:30;;;;;;;73.57;34.67;;;;;;;7.40;81.33;103120.69;5016952;28;20504;-69
2022/03/25 01:33:56;;;;;;;67.57;35.65;;;;;;;7.35;82.87;103115.16;5015348;28;20036;-70
2022/03/25 01:36:22;;;;;;;63.00;34.28;;;;;;;7.30;82.18;103115.63;5023764;28;20029;-70
2022/03/25 01:38:47;;;;;;;67.45;34.50;;;;;;;7.31;83.30;103104.38;4997098;28;20076;-70
2022/03/25 01:41:18;;;;;;;67.28;35.75;;;;;;;7.30;82.74;103108.72;5014890;28;20026;-70
2022/03/25 01:43:55;;;;;;;67.68;36.15;;;;;;;7.28;83.38;103107.69;5018078;28;20409;-69
2022/03/25 01:46:21;;;;;;;65.22;34.90;;;;;;;7.34;83.96;103105.50;5014036;28;20030;-70
2022/03/25 01:48:48;;;;;;;74.80;36.75;;;;;;;7.28;83.35;103117.25;5014508;28;20112;-69
2022/03/25 01:51:20;;;;;;;67.43;37.33;;;;;;;7.28;83.49;103107.69;5026938;28;20021;-70
2022/03/25 01:53:47;;;;;;;67.78;37.55;;;;;;;7.19;83.97;103104.44;4985122;28;20033;-70
2022/03/25 01:56:21;;;;;;;67.68;36.50;;;;;;;7.18;84.26;103115.75;5031198;28;20457;-70
2022/03/25 01:58:46;;;;;;;68.35;36.65;;;;;;;7.16;84.24;103115.66;4996624;28;20104;-70
2022/03/25 02:01:11;;;;;;;76.25;37.97;;;;;;;7.18;84.86;103116.63;5014415;28;20026;-69
2022/03/25 02:03:37;;;;;;;73.55;40.45;;;;;;;7.11;84.83;103116.13;5013768;28;20733;-70
2022/03/25 02:06:04;;;;;;;74.05;39.08;;;;;;;7.18;86.29;103113.13;5015351;28;20049;-70
2022/03/25 02:08:30;;;;;;;78.35;40.90;;;;;;;7.03;86.33;103111.28;5013940;28;20025;-70
2022/03/25 02:10:56;;;;;;;72.93;39.65;;;;;;;7.01;87.56;103110.28;5019888;28;20117;-69
2022/03/25 02:13:22;;;;;;;73.20;38.60;;;;;;;7.02;86.53;103108.56;5014216;28;20026;-69
2022/03/25 02:15:48;;;;;;;75.97;39.45;;;;;;;6.93;86.60;103108.81;5013966;28;20042;-70
2022/03/25 02:18:15;;;;;;;76.25;39.88;;;;;;;6.87;86.89;103111.03;4997262;28;20168;-70
2022/03/25 02:20:42;;;;;;;78.45;40.22;;;;;;;6.87;87.76;103111.03;5014675;28;20021;-70
2022/03/25 02:23:08;;;;;;;81.75;42.30;;;;;;;6.82;87.75;103113.31;5013723;28;20046;-69
2022/03/25 02:25:33;;;;;;;79.93;42.03;;;;;;;6.78;87.87;103120.88;4999587;28;20109;-70
2022/03/25 02:28:00;;;;;;;83.75;41.50;;;;;;;6.80;88.34;103114.06;5021219;28;20120;-70
2022/03/25 02:30:27;;;;;;;81.32;42.90;;;;;;;6.77;88.22;103113.81;5023272;28;20403;-70
2022/03/25 02:33:01;;;;;;;81.32;42.50;;;;;;;6.75;88.94;103112.03;5018773;28;20030;-69
2022/03/25 02:35:46;;;;;;;;;;;;;;;6.64;88.71;103118.22;4996460;28;20033;-69
2022/03/25 02:38:23;;;;;;;84.72;43.60;;;;;;;6.64;89.84;103107.75;5013522;28;20446;-70
2022/03/25 02:40:49;;;;;;;88.57;43.35;;;;;;;6.57;90.38;103110.75;5011789;28;20033;-70
2022/03/25 02:43:15;;;;;;;90.60;44.00;;;;;;;6.56;90.61;103111.53;5013628;28;20457;-70
2022/03/25 02:45:41;;;;;;;83.80;43.83;;;;;;;6.51;90.80;103108.63;5013116;28;20084;-70
2022/03/25 02:48:07;;;;;;;85.35;44.40;;;;;;;6.46;91.01;103109.06;5013767;28;20076;-70
2022/03/25 02:50:33;;;;;;;87.50;46.13;;;;;;;6.52;92.01;103114.75;5018964;28;20108;-69
2022/03/25 02:52:59;;;;;;;85.07;43.72;;;;;;;6.43;91.74;103108.88;5015508;28;20108;-70
2022/03/25 02:55:25;;;;;;;89.65;46.20;;;;;;;6.41;91.77;103108.75;5013822;28;20037;-71
2022/03/25 02:57:51;;;;;;;90.97;45.22;;;;;;;6.39;92.12;103105.16;5017117;28;20029;-70
2022/03/25 03:00:19;;;;;;;86.55;45.53;;;;;;;6.34;92.17;103112.66;5026038;28;20042;-70
2022/03/25 03:02:46;;;;;;;96.70;46.70;;;;;;;6.37;92.18;103112.84;5014299;28;20055;-69
2022/03/25 03:05:11;;;;;;;131.32;50.33;;;;;;;6.36;92.74;103116.31;5030031;28;20088;-70
2022/03/25 03:07:37;;;;;;;99.43;47.03;;;;;;;6.25;92.95;103112.00;5012749;28;20018;-69
2022/03/25 03:10:05;;;;;;;98.25;46.90;;;;;;;6.20;93.54;103118.59;4995472;28;20112;-69
2022/03/25 03:12:31;;;;;;;100.30;46.28;;;;;;;6.11;94.11;103111.03;5013459;28;20067;-70
2022/03/25 03:14:57;;;;;;;91.53;46.33;;;;;;;6.21;93.39;103115.19;5015917;28;20113;-69
2022/03/25 03:17:23;;;;;;;95.13;47.17;;;;;;;6.14;93.54;103113.84;5011685;28;20117;-69
2022/03/25 03:19:50;;;;;;;91.22;45.72;;;;;;;6.12;94.03;103111.91;5010091;28;20026;-69
2022/03/25 03:22:15;;;;;;;88.65;47.72;;;;;;;6.04;94.09;103114.00;5013079;28;20090;-70
2022/03/25 03:24:41;;;;;;;98.63;49.55;;;;;;;6.02;95.14;103116.50;5019833;28;20453;-69
2022/03/25 03:27:06;;;;;;;99.55;49.03;;;;;;;5.99;95.81;103108.44;5013246;28;20022;-70
2022/03/25 03:29:32;;;;;;;101.97;50.83;;;;;;;6.00;95.23;103112.88;5012302;28;20354;-69
2022/03/25 03:31:57;;;;;;;105.43;52.83;;;;;;;6.11;96.47;103112.75;4994838;28;20119;-69
2022/03/25 03:34:23;;;;;;;106.07;53.25;;;;;;;5.96;95.76;103107.28;5012197;28;20081;-69
2022/03/25 03:36:48;;;;;;;97.70;51.47;;;;;;;5.90;95.99;103110.34;5012697;28;20109;-69
2022/03/25 03:39:13;;;;;;;98.53;50.78;;;;;;;5.88;95.85;103109.34;5013801;28;20036;-69
2022/03/25 03:41:39;;;;;;;98.53;49.67;;;;;;;5.88;96.08;103109.34;5012842;28;20030;-69
2022/03/25 03:44:06;;;;;;;101.80;50.17;;;;;;;5.87;96.52;103104.91;5019140;28;20053;-70
2022/03/25 03:46:31;;;;;;;104.93;51.42;;;;;;;5.81;96.25;103113.22;5027364;28;20044;-69
2022/03/25 03:48:56;;;;;;;102.40;54.03;;;;;;;5.81;96.36;103112.31;5015712;28;20034;-69
2022/03/25 03:51:22;;;;;;;104.45;53.00;;;;;;;5.76;96.01;103103.22;5012820;28;20040;-69
2022/03/25 03:53:47;;;;;;;104.57;53.63;;;;;;;5.74;97.60;103109.25;5011885;28;20029;-70
2022/03/25 03:56:12;;;;;;;101.32;51.45;;;;;;;5.77;98.01;103120.72;5013826;28;20030;-70
2022/03/25 03:58:39;;;;;;;106.03;50.70;;;;;;;5.73;96.95;103120.47;4994172;28;20061;-70
2022/03/25 04:01:05;;;;;;;104.93;52.42;;;;;;;5.78;98.54;103119.91;5011657;28;20029;-70
2022/03/25 04:03:30;;;;;;;104.90;51.53;;;;;;;5.76;97.93;103118.91;5012580;28;20030;-69
2022/03/25 04:05:56;;;;;;;106.90;52.60;;;;;;;5.67;97.37;103112.22;5014041;28;20092;-70
2022/03/25 04:08:23;;;;;;;100.22;51.17;;;;;;;5.69;97.81;103110.59;5011400;28;20042;-70
2022/03/25 04:10:48;;;;;;;104.13;51.13;;;;;;;5.76;97.65;103118.91;5012062;28;20025;-69
2022/03/25 04:13:14;;;;;;;103.60;53.85;;;;;;;5.73;98.95;103115.25;5011751;28;20393;-69
2022/03/25 04:15:39;;;;;;;109.70;54.20;;;;;;;5.66;98.93;103118.22;5012646;28;20149;-70
2022/03/25 04:18:05;;;;;;;107.47;53.55;;;;;;;5.58;99.81;103127.19;5013475;28;20030;-69
2022/03/25 04:20:30;;;;;;;111.20;55.15;;;;;;;5.57;99.33;103123.69;5024275;28;20478;-70
2022/03/25 04:22:55;;;;;;;109.80;55.65;;;;;;;5.57;99.54;103122.75;5012054;28;20080;-70
2022/03/25 04:25:21;;;;;;;106.20;54.85;;;;;;;5.52;99.48;103126.72;5012373;28;20030;-69
2022/03/25 04:27:46;;;;;;;106.75;54.95;;;;;;;5.50;100.00;103125.72;5011572;28;20033;-69
2022/03/25 04:30:12;;;;;;;102.45;54.00;;;;;;;5.47;99.26;103125.50;5024651;28;20057;-69
2022/03/25 04:32:37;;;;;;;112.70;54.90;;;;;;;5.39;99.87;103122.31;5013586;28;20093;-70
2022/03/25 04:35:03;;;;;;;111.63;55.95;;;;;;;5.33;100.00;103122.78;5013057;28;20042;-69
2022/03/25 04:37:28;;;;;;;108.82;54.70;;;;;;;5.28;100.00;103118.91;5011220;28;21940;-69
2022/03/25 04:39:54;;;;;;;111.45;55.35;;;;;;;5.37;100.00;103116.97;5016540;28;20532;-69
2022/03/25 04:42:19;;;;;;;114.57;55.78;;;;;;;5.41;100.00;103125.94;5011961;28;20022;-69
2022/03/25 04:44:45;;;;;;;108.00;54.90;;;;;;;5.33;100.00;103117.56;5022346;28;20372;-69
2022/03/25 04:47:10;;;;;;;111.38;53.88;;;;;;;5.31;100.00;103123.44;5014829;28;20182;-69
2022/03/25 04:49:36;;;;;;;111.03;53.42;;;;;;;5.25;100.00;103123.91;5011405;28;20029;-70
2022/03/25 04:52:01;;;;;;;114.50;58.30;;;;;;;5.23;100.00;103121.16;5011618;28;20458;-69
2022/03/25 04:54:27;;;;;;;111.95;54.05;;;;;;;5.22;100.00;103119.34;5011770;28;20033;-69
2022/03/25 04:56:52;;;;;;;108.47;57.00;;;;;;;5.32;100.00;103131.38;5011239;28;20025;-69
2022/03/25 04:59:18;;;;;;;104.72;53.75;;;;;;;5.20;100.00;103123.53;5019910;28;20484;-70
2022/03/25 05:01:43;;;;;;;109.72;53.28;;;;;;;5.12;100.00;103131.59;5021716;28;20053;-69
2022/03/25 05:04:09;;;;;;;112.72;54.83;;;;;;;5.12;100.00;103131.59;5021699;28;20032;-69
2022/03/25 05:06:34;;;;;;;106.25;56.50;;;;;;;5.11;100.00;103137.59;4994959;28;20030;-69
2022/03/25 05:09:00;;;;;;;110.80;56.10;;;;;;;5.09;100.00;103132.28;5012179;28;20022;-70
2022/03/25 05:11:25;;;;;;;117.35;58.08;;;;;;;5.03;100.00;103135.31;5013116;28;20029;-70
2022/03/25 05:13:51;;;;;;;116.82;57.80;;;;;;;5.03;100.00;103140.53;5012652;28;20053;-70
2022/03/25 05:16:16;;;;;;;115.55;56.28;;;;;;;4.95;100.00;103139.06;5011388;28;20057;-70
2022/03/25 05:18:41;;;;;;;117.70;58.53;;;;;;;4.94;100.00;103145.06;5011591;28;20018;-71
2022/03/25 05:21:07;;;;;;;119.53;58.30;;;;;;;4.94;100.00;103149.34;5011711;28;20026;-71
2022/03/25 05:23:32;;;;;;;118.32;57.63;;;;;;;5.00;100.00;103148.13;5011352;28;20105;-71
2022/03/25 05:25:58;;;;;;;114.28;56.00;;;;;;;4.98;100.00;103149.72;4994173;28;20735;-71
2022/03/25 05:28:23;;;;;;;115.90;55.50;;;;;;;4.92;100.00;103149.22;4997612;28;20037;-70
2022/03/25 05:30:48;;;;;;;113.82;56.10;;;;;;;4.96;100.00;103145.16;5021386;28;20496;-70
2022/03/25 05:33:14;;;;;;;122.97;58.38;;;;;;;5.05;100.00;103146.78;5017723;28;20029;-70
2022/03/25 05:35:39;;;;;;;117.18;57.38;;;;;;;5.00;100.00;103150.72;4997354;28;20022;-70
2022/03/25 05:38:05;;;;;;;116.57;58.92;;;;;;;4.97;100.00;103155.72;5014841;28;20358;-70
2022/03/25 05:40:30;;;;;;;110.60;56.60;;;;;;;4.94;100.00;103151.94;5014911;28;20033;-70
2022/03/25 05:42:56;;;;;;;123.63;61.22;;;;;;;4.98;100.00;103159.22;5015682;28;20048;-71
2022/03/25 05:45:22;;;;;;;118.97;59.92;;;;;;;4.92;100.00;103154.44;5008151;28;20156;-69
2022/03/25 05:47:49;;;;;;;118.90;57.70;;;;;;;4.95;100.00;103159.94;4997225;28;20030;-70
2022/03/25 05:50:15;;;;;;;121.28;60.33;;;;;;;4.93;100.00;103156.28;5015392;28;20026;-71
2022/03/25 05:52:41;;;;;;;124.00;60.13;;;;;;;4.92;100.00;103153.56;4997260;28;20034;-69
2022/03/25 05:55:08;;;;;;;120.65;60.25;;;;;;;4.93;100.00;103156.28;5013310;28;20038;-70
2022/03/25 05:57:34;;;;;;;144.35;68.28;;;;;;;4.98;100.00;103157.53;5013738;28;20033;-70
2022/03/25 06:00:00;;;;;;;120.63;61.58;;;;;;;5.00;100.00;103163.78;5014451;28;20156;-70
2022/03/25 06:02:26;;;;;;;129.55;61.22;;;;;;;4.98;100.00;103154.94;4999963;28;20113;-69
2022/03/25 06:04:52;;;;;;;119.68;61.70;;;;;;;5.13;100.00;103154.25;5019231;28;20403;-70
2022/03/25 06:07:18;;;;;;;126.80;60.10;;;;;;;5.12;100.00;103162.91;5013690;28;20032;-73
2022/03/25 06:09:43;;;;;;;122.60;62.97;;;;;;;5.20;100.00;103151.34;5013679;28;20033;-73
2022/03/25 06:12:10;;;;;;;121.72;60.25;;;;;;;5.17;100.00;103167.69;5011677;28;20026;-71
2022/03/25 06:14:35;;;;;;;125.00;63.13;;;;;;;5.22;100.00;103168.94;5000118;28;20038;-71
2022/03/25 06:17:01;;;;;;;121.18;60.22;;;;;;;5.21;100.00;103169.72;5009948;28;20064;-68
2022/03/25 06:19:27;;;;;;;129.27;64.10;;;;;;;5.31;100.00;103176.56;4994818;28;20029;-70
2022/03/25 06:21:53;;;;;;;135.77;65.25;;;;;;;5.31;100.00;103175.66;5011316;28;20405;-70
2022/03/25 06:24:18;;;;;;;130.30;64.15;;;;;;;5.32;100.00;103178.38;5013055;28;20520;-70
2022/03/25 06:26:43;;;;;;;128.30;64.60;;;;;;;5.40;100.00;103177.25;4995518;28;20532;-72
2022/03/25 06:29:09;;;;;;;130.23;65.45;;;;;;;5.42;100.00;103176.47;5008084;28;20034;-72
2022/03/25 06:31:34;;;;;;;132.95;63.30;;;;;;;5.43;100.00;103180.91;5001931;28;20029;-71
2022/03/25 06:34:00;;;;;;;136.63;66.03;;;;;;;5.45;100.00;103180.19;4999549;28;20034;-71
2022/03/25 06:36:25;;;;;;;143.77;64.50;;;;;;;5.52;100.00;103181.56;5012386;28;20032;-71
2022/03/25 06:38:50;;;;;;;136.48;67.10;;;;;;;5.54;100.00;103190.44;4990453;28;20030;-71
2022/03/25 06:41:16;;;;;;;131.48;65.60;;;;;;;5.58;100.00;103182.03;4994406;28;20047;-71
2022/03/25 06:43:42;;;;;;;135.35;67.75;;;;;;;5.60;100.00;103185.66;5011183;28;20088;-70
2022/03/25 06:46:07;;;;;;;139.38;66.43;;;;;;;5.71;100.00;103200.47;5013642;28;20495;-71
2022/03/25 06:48:33;;;;;;;137.88;67.43;;;;;;;5.78;100.00;103195.66;5012710;28;20072;-68
2022/03/25 06:51:00;;;;;;;129.18;66.28;;;;;;;5.82;100.00;103197.72;5012126;28;20026;-69
2022/03/25 06:53:26;;;;;;;130.32;67.22;;;;;;;5.88;100.00;103193.84;5012580;28;20033;-71
2022/03/25 06:55:52;;;;;;;131.85;66.72;;;;;;;5.92;100.00;103200.22;5012371;28;20028;-69
2022/03/25 06:58:18;;;;;;;137.10;68.15;;;;;;;6.02;100.00;103194.91;5011921;28;20036;-70
2022/03/25 07:00:44;;;;;;;141.10;67.93;;;;;;;6.05;100.00;103200.38;5011706;28;20026;-70
2022/03/25 07:03:11;;;;;;;126.47;66.13;;;;;;;6.07;100.00;103203.09;5016712;28;20036;-70
2022/03/25 07:05:36;;;;;;;130.07;66.10;;;;;;;6.10;100.00;103205.00;5012309;28;20057;-70
2022/03/25 07:08:03;;;;;;;125.45;62.88;;;;;;;6.17;100.00;103209.88;5006158;28;20060;-70
2022/03/25 07:10:29;;;;;;;124.32;63.25;;;;;;;6.21;100.00;103218.09;4998154;28;20025;-70
2022/03/25 07:12:54;;;;;;;123.18;64.50;;;;;;;6.25;100.00;103211.34;5030345;28;20381;-70
2022/03/25 07:15:21;;;;;;;121.90;62.47;;;;;;;6.31;100.00;103214.41;5027046;28;20375;-72
2022/03/25 07:17:47;;;;;;;122.47;61.58;;;;;;;6.28;100.00;103213.28;5017123;28;20026;-72
2022/03/25 07:20:17;;;;;;;131.48;62.67;;;;;;;6.32;100.00;103213.63;5009480;28;20106;-72
2022/03/25 07:22:43;;;;;;;122.63;63.88;;;;;;;6.41;100.00;103218.59;4994599;28;20498;-71
2022/03/25 07:25:10;;;;;;;119.57;60.92;;;;;;;6.48;100.00;103214.72;5023670;28;20021;-72
2022/03/25 07:27:36;;;;;;;120.32;62.97;;;;;;;6.52;100.00;103212.41;4988788;28;20030;-73
2022/03/25 07:30:02;;;;;;;118.95;61.50;;;;;;;6.58;100.00;103211.97;5015613;28;20025;-71
2022/03/25 07:32:28;;;;;;;123.47;61.78;;;;;;;6.63;100.00;103221.03;4995212;28;20038;-70
2022/03/25 07:34:53;;;;;;;123.10;61.45;;;;;;;6.74;100.00;103222.72;4992156;28;20378;-70
2022/03/25 07:37:18;;;;;;;117.80;59.90;;;;;;;6.79;100.00;103220.41;5021717;28;20025;-71
2022/03/25 07:39:44;;;;;;;120.88;61.88;;;;;;;6.94;100.00;103230.16;5011820;28;20030;-73
2022/03/25 07:42:10;;;;;;;122.45;62.47;;;;;;;7.02;100.00;103237.72;5019299;28;20037;-70
2022/03/25 07:44:37;;;;;;;121.53;61.97;;;;;;;7.14;100.00;103239.41;5012327;28;20048;-71
2022/03/25 07:47:03;;;;;;;111.82;58.75;;;;;;;7.20;100.00;103237.19;4999948;28;20052;-72
2022/03/25 07:49:28;;;;;;;128.82;62.20;;;;;;;7.29;100.00;103237.84;5018072;28;20529;-71
2022/03/25 07:51:53;;;;;;;114.65;58.92;;;;;;;7.42;100.00;103243.13;5016133;28;20033;-72
2022/03/25 07:54:19;;;;;;;113.30;59.70;;;;;;;7.51;100.00;103244.53;5010864;28;20488;-72
2022/03/25 07:56:44;;;;;;;109.72;62.10;;;;;;;7.57;100.00;103247.59;5004060;28;20026;-72
2022/03/25 07:59:11;;;;;;;106.50;57.85;;;;;;;7.67;100.00;103246.50;4993345;28;20079;-71
2022/03/25 08:01:36;;;;;;;113.15;58.78;;;;;;;7.75;100.00;103250.53;5012406;28;20022;-72
2022/03/25 08:04:01;;;;;;;101.57;56.13;;;;;;;7.85;100.00;103252.03;4993593;28;20112;-72
2022/03/25 08:06:27;;;;;;;107.95;59.88;;;;;;;7.96;100.00;103260.63;5020112;28;20021;-72
2022/03/25 08:08:52;;;;;;;99.85;55.10;;;;;;;8.04;100.00;103254.16;5014213;28;20072;-73
2022/03/25 08:11:20;;;;;;;99.78;56.20;;;;;;;8.09;100.00;103258.91;4993221;28;20132;-72
2022/03/25 08:13:47;;;;;;;101.43;56.97;;;;;;;8.21;100.00;103264.06;5012575;28;20326;-73
2022/03/25 08:16:14;;;;;;;101.28;54.17;;;;;;;8.31;100.00;103264.66;5010553;28;20104;-73
2022/03/25 08:18:39;;;;;;;98.80;53.80;;;;;;;8.40;100.00;103276.66;5009940;28;20421;-73
2022/03/25 08:21:06;;;;;;;99.28;54.00;;;;;;;8.52;100.00;103275.66;5011840;28;20054;-73
2022/03/25 08:29:00;;;;;;;90.30;50.35;;;;;;;8.77;97.62;103268.53;5007517;28;20501;-72
2022/03/25 08:31:25;;;;;;;93.20;50.60;;;;;;;8.80;96.58;103272.16;4986340;28;20030;-71
2022/03/25 08:33:50;;;;;;;92.15;52.13;;;;;;;8.87;97.05;103266.47;4992798;28;20119;-72
2022/03/25 08:36:17;;;;;;;92.93;50.42;;;;;;;8.95;97.44;103275.75;5007456;28;20032;-73
2022/03/25 08:38:43;;;;;;;89.72;49.47;;;;;;;9.06;96.01;103276.41;5009849;28;20026;-74
2022/03/25 08:41:09;;;;;;;89.45;50.05;;;;;;;9.20;94.84;103274.66;4991117;28;20018;-74
2022/03/25 08:43:34;;;;;;;83.53;46.83;;;;;;;9.32;94.08;103272.78;5002283;28;20029;-74
2022/03/25 08:46:01;;;;;;;83.60;47.33;;;;;;;9.47;92.95;103279.75;5011335;28;20053;-74
2022/03/25 08:48:27;;;;;;;87.90;48.90;;;;;;;9.57;90.91;103276.88;4980529;28;20034;-74
2022/03/25 08:50:53;;;;;;;79.20;44.45;;;;;;;9.78;90.56;103266.75;5011973;28;20030;-74
2022/03/25 08:53:18;;;;;;;87.10;45.47;;;;;;;9.91;89.23;103264.00;5007955;28;20033;-73
2022/03/25 08:55:44;;;;;;;78.25;44.30;;;;;;;10.01;87.21;103265.47;4993778;28;20018;-74
2022/03/25 08:58:09;;;;;;;74.68;43.95;;;;;;;10.19;87.20;103265.59;5003371;28;20034;-74
2022/03/25 09:00:35;;;;;;;82.78;44.13;;;;;;;10.26;86.65;103270.38;5012773;28;20101;-74
2022/03/25 09:03:01;;;;;;;74.40;41.70;;;;;;;10.36;84.50;103269.22;5014700;28;20066;-74
2022/03/25 09:05:26;;;;;;;75.13;40.28;;;;;;;10.53;80.94;103262.28;5016157;28;20444;-73
2022/03/25 09:07:51;;;;;;;69.05;40.30;;;;;;;10.75;80.13;103260.84;4997758;28;20034;-73
2022/03/25 09:10:17;;;;;;;68.70;41.22;;;;;;;10.93;81.15;103264.47;5014561;28;20029;-73
2022/03/25 09:12:44;;;;;;;109.60;46.65;;;;;;;11.09;82.41;103266.19;5015011;28;20025;-73
2022/03/25 09:15:13;;;;;;;75.03;40.95;;;;;;;11.32;80.27;103271.78;5015404;28;20056;-74
2022/03/25 09:17:39;;;;;;;141.80;47.13;;;;;;;11.46;79.76;103278.69;5013766;28;20046;-75
2022/03/25 09:20:05;;;;;;;85.35;42.10;;;;;;;11.71;79.43;103276.41;5030537;28;20030;-73
2022/03/25 09:22:32;;;;;;;72.97;43.05;;;;;;;11.90;77.45;103275.63;5013317;28;20038;-72
2022/03/25 09:24:58;;;;;;;73.25;42.70;;;;;;;12.20;76.74;103280.63;4996998;28;20036;-73
2022/03/25 09:27:23;;;;;;;68.70;41.45;;;;;;;12.43;74.72;103279.13;5014109;28;20026;-73
2022/03/25 09:29:49;;;;;;;70.82;43.10;;;;;;;12.58;76.64;103277.19;5013790;28;20046;-73
2022/03/25 09:32:14;;;;;;;73.95;42.70;;;;;;;12.76;75.20;103279.78;5029539;28;20386;-73
2022/03/25 09:37:24;;;;;;;66.28;38.30;;;;;;;12.97;73.67;103273.72;5015602;28;20029;-73
2022/03/25 09:39:50;;;;;;;73.93;41.75;;;;;;;13.02;73.90;103277.44;4999063;28;20034;-72
2022/03/25 09:42:16;;;;;;;63.25;39.53;;;;;;;12.94;74.22;103279.75;5024450;28;20026;-73
2022/03/25 09:44:42;;;;;;;84.00;41.65;;;;;;;13.19;73.14;103275.59;5017764;28;20064;-72
2022/03/25 09:47:10;;;;;;;66.10;40.65;;;;;;;13.44;72.60;103274.06;5013767;28;20398;-72
2022/03/25 09:49:38;;;;;;;62.65;38.53;;;;;;;13.80;70.59;103272.09;5015539;28;20417;-72
2022/03/25 09:52:05;;;;;;;68.53;40.55;;;;;;;14.09;69.51;103274.16;5028402;28;20062;-73
2022/03/25 09:54:31;;;;;;;59.08;34.22;;;;;;;14.37;63.86;103269.97;5019169;28;20037;-72
2022/03/25 09:56:57;;;;;;;60.15;37.28;;;;;;;14.72;62.53;103263.44;5018516;28;20034;-73
2022/03/25 09:59:22;;;;;;;61.10;38.42;;;;;;;15.00;62.12;103267.13;5014052;28;20029;-72
2022/03/25 10:01:48;;;;;;;57.42;37.17;;;;;;;14.77;60.51;103267.19;5014648;28;20491;-72
2022/03/25 10:04:42;;;;;;;51.17;29.00;;;;;;;15.01;53.07;103250.38;4996561;28;20453;-73
2022/03/25 10:07:14;;;;;;;53.10;29.20;;;;;;;15.11;51.69;103257.84;5014577;28;20054;-73
2022/03/25 10:09:40;;;;;;;50.08;26.25;;;;;;;15.05;47.01;103249.63;5014325;28;20030;-73
2022/03/25 10:12:27;;;;;;;55.05;28.90;;;;;;;15.12;47.56;103259.59;5013281;28;20037;-73
2022/03/25 10:15:11;;;;;;;55.40;26.67;;;;;;;15.31;46.00;103254.97;4996721;28;20154;-73
2022/03/25 10:17:50;;;;;;;57.85;27.67;;;;;;;15.55;49.10;103254.06;4992709;28;20054;-73
2022/03/25 10:20:16;;;;;;;54.10;29.17;;;;;;;15.50;46.42;103249.50;4995152;28;20733;-71
2022/03/25 10:23:25;;;;;;;59.67;27.95;;;;;;;15.85;45.97;103249.81;4993585;28;20026;-71
2022/03/25 10:25:55;;;;;;;51.10;28.17;;;;;;;15.62;46.43;103241.03;4981045;28;20437;-71
2022/03/25 10:28:30;;;;;;;57.58;27.52;;;;;;;15.95;44.90;103237.75;4992923;28;20022;-71
2022/03/25 10:30:57;;;;;;;47.53;29.65;;;;;;;15.93;44.56;103238.56;4989978;28;20116;-71
2022/03/25 10:33:26;;;;;;;47.85;28.05;;;;;;;16.04;46.04;103244.22;4998529;28;20084;-72
2022/03/25 10:36:06;;;;;;;54.03;29.42;;;;;;;16.23;43.05;103241.28;4994224;28;20251;-71
2022/03/25 10:38:44;;;;;;;55.63;28.40;;;;;;;16.55;44.14;103237.81;4979789;28;20050;-72
2022/03/25 10:41:11;;;;;;;45.75;27.90;;;;;;;16.75;43.43;103247.28;4976656;28;20027;-71
2022/03/25 10:43:54;;;;;;;42.35;26.42;;;;;;;16.98;41.11;103231.13;4990605;28;20034;-72
2022/03/25 10:46:46;;;;;;;44.87;26.00;;;;;;;17.25;40.78;103233.66;4996854;28;20025;-70
2022/03/25 10:49:14;;;;;;;51.28;27.13;;;;;;;17.44;41.54;103227.06;5000744;28;20845;-71
2022/03/25 10:51:52;;;;;;;49.55;27.23;;;;;;;17.77;40.00;103233.22;5013954;28;20025;-71
2022/03/25 10:54:23;;;;;;;47.08;27.60;;;;;;;17.76;38.02;103221.66;5003352;28;20105;-71
2022/03/25 10:56:53;;;;;;;50.05;26.60;;;;;;;17.83;38.40;103214.72;4993296;28;20022;-70
2022/03/25 10:59:24;;;;;;;48.78;27.55;;;;;;;17.93;36.25;103223.88;4999126;28;20052;-69
2022/03/25 11:01:52;;;;;;;38.58;24.30;;;;;;;17.95;36.50;103217.72;5006429;28;20094;-70
2022/03/25 11:04:18;;;;;;;41.65;25.20;;;;;;;17.71;37.51;103212.66;5001435;28;20126;-70
2022/03/25 11:06:47;;;;;;;36.05;24.92;;;;;;;17.87;36.93;103214.81;4995807;28;20117;-69
2022/03/25 11:09:14;;;;;;;43.78;26.45;;;;;;;17.97;37.43;103215.09;5004267;28;20026;-70
2022/03/25 11:11:45;;;;;;;45.17;27.23;;;;;;;18.33;35.82;103203.50;4993766;28;20366;-71
2022/03/25 11:14:11;;;;;;;43.78;26.90;;;;;;;18.36;36.73;103209.75;4993196;28;20426;-71
2022/03/25 11:16:45;;;;;;;41.85;25.10;;;;;;;18.62;36.55;103211.22;5003657;28;20045;-71